createdAt,value
2023-08-08T00:00:51.089Z,23.22
2023-08-08T00:05:52.391Z,23.21
2023-08-08T00:10:53.677Z,23.25
2023-08-08T00:15:55.060Z,23.12
2023-08-08T00:20:56.416Z,23.26
2023-08-08T00:25:57.733Z,23.16
2023-08-08T00:30:59.063Z,23.24
2023-08-08T00:36:00.402Z,23.29
2023-08-08T00:41:01.800Z,23.22
2023-08-08T00:46:03.130Z,23.24
2023-08-08T00:51:04.429Z,23.25
2023-08-08T00:56:06.011Z,23.22
2023-08-08T01:01:07.428Z,23.27
2023-08-08T01:06:21.263Z,23.22
2023-08-08T01:11:22.568Z,23.17
2023-08-08T01:16:24.149Z,23.16
2023-08-08T01:21:25.701Z,23.23
2023-08-08T01:26:27.089Z,23.22
2023-08-08T01:31:28.445Z,23.26
2023-08-08T01:36:48.552Z,23.22
2023-08-08T01:41:49.857Z,23.16
2023-08-08T01:46:51.814Z,23.16
2023-08-08T01:51:53.345Z,23.20
2023-08-08T01:56:54.643Z,23.27
2023-08-08T02:01:55.970Z,23.25
2023-08-08T02:06:57.293Z,23.18
2023-08-08T02:11:58.834Z,23.20
2023-08-08T02:17:00.303Z,23.24
2023-08-08T02:22:01.871Z,23.25
2023-08-08T02:27:03.446Z,23.25
2023-08-08T02:32:04.896Z,23.17
2023-08-08T02:37:06.258Z,23.17
2023-08-08T02:42:07.555Z,23.25
2023-08-08T02:47:08.872Z,23.28
2023-08-08T02:52:10.363Z,23.22
2023-08-08T02:57:12.824Z,23.23
2023-08-08T03:02:14.157Z,23.14
2023-08-08T03:07:15.455Z,23.22
2023-08-08T03:12:16.808Z,23.24
2023-08-08T03:17:18.080Z,23.18
2023-08-08T03:22:19.443Z,23.13
2023-08-08T03:27:20.806Z,23.13
2023-08-08T03:32:22.616Z,23.23
2023-08-08T03:37:23.912Z,23.23
2023-08-08T03:42:25.397Z,23.22
2023-08-08T03:47:26.754Z,23.11
2023-08-08T03:52:28.232Z,23.16
2023-08-08T03:57:29.562Z,23.21
2023-08-08T04:02:30.947Z,23.14
2023-08-08T04:07:32.342Z,23.22
2023-08-08T04:12:34.059Z,23.17
2023-08-08T04:17:35.391Z,23.22
2023-08-08T04:22:36.827Z,23.23
2023-08-08T04:27:38.211Z,23.20
2023-08-08T04:32:39.646Z,23.19
2023-08-08T04:37:41.026Z,23.18
2023-08-08T04:42:42.325Z,23.20
2023-08-08T04:47:43.735Z,23.20
2023-08-08T04:52:45.063Z,23.17
2023-08-08T04:57:46.356Z,23.19
2023-08-08T05:02:47.755Z,23.24
2023-08-08T05:07:49.103Z,23.29
2023-08-08T05:12:50.416Z,23.31
2023-08-08T05:17:52.311Z,23.29
2023-08-08T05:22:53.666Z,23.26
2023-08-08T05:27:55.083Z,23.26
2023-08-08T05:32:56.396Z,23.32
2023-08-08T05:37:57.699Z,23.35
2023-08-08T05:42:59.022Z,23.38
2023-08-08T05:48:01.427Z,23.45
2023-08-08T05:53:02.795Z,23.46
2023-08-08T05:58:05.114Z,23.44
2023-08-08T06:03:06.625Z,23.42
2023-08-08T06:08:12.404Z,23.43
2023-08-08T06:13:13.700Z,23.42
2023-08-08T06:18:14.984Z,23.40
2023-08-08T06:23:16.467Z,23.42
2023-08-08T06:28:17.869Z,23.41
2023-08-08T06:33:19.296Z,23.43
2023-08-08T06:38:20.578Z,23.40
2023-08-08T06:43:21.866Z,23.41
2023-08-08T06:48:23.464Z,23.37
2023-08-08T06:53:24.768Z,23.42
2023-08-08T06:58:26.051Z,23.40
2023-08-08T07:03:27.486Z,23.43
2023-08-08T07:08:30.251Z,23.45
2023-08-08T07:13:31.549Z,23.44
2023-08-08T07:18:32.891Z,23.44
2023-08-08T07:23:34.194Z,23.43
2023-08-08T07:28:35.481Z,23.45
2023-08-08T07:33:36.785Z,23.50
2023-08-08T07:38:39.366Z,23.47
2023-08-08T07:43:40.673Z,23.53
2023-08-08T07:48:41.964Z,23.50
2023-08-08T07:53:45.089Z,23.50
2023-08-08T07:58:48.375Z,23.50
2023-08-08T08:03:49.767Z,23.55
2023-08-08T08:08:51.177Z,23.54
2023-08-08T08:13:52.482Z,23.57
2023-08-08T08:18:54.122Z,23.55
2023-08-08T08:23:55.721Z,23.58
2023-08-08T08:28:57.008Z,23.58
2023-08-08T08:33:58.292Z,23.64
2023-08-08T08:38:59.607Z,23.62
2023-08-08T08:44:00.895Z,23.64
2023-08-08T08:49:02.194Z,23.63
2023-08-08T08:54:03.519Z,23.65
2023-08-08T08:59:04.839Z,23.64
2023-08-08T09:04:08.563Z,23.64
2023-08-08T09:09:16.554Z,23.64
2023-08-08T09:14:22.189Z,23.64
2023-08-08T09:19:23.816Z,23.69
2023-08-08T09:24:25.147Z,23.64
2023-08-08T09:29:26.477Z,23.66
2023-08-08T09:34:27.779Z,23.63
2023-08-08T09:39:29.155Z,23.62
2023-08-08T09:44:31.002Z,23.58
2023-08-08T09:49:35.146Z,23.52
2023-08-08T09:54:36.426Z,23.58
2023-08-08T09:59:38.527Z,23.57
2023-08-08T10:04:39.834Z,23.59
2023-08-08T10:09:41.115Z,23.58
2023-08-08T10:14:43.018Z,23.54
2023-08-08T10:19:50.694Z,23.59
2023-08-08T10:24:52.477Z,23.68
2023-08-08T10:29:53.806Z,23.73
2023-08-08T10:34:57.381Z,23.74
2023-08-08T10:39:59.069Z,23.85
2023-08-08T10:45:00.864Z,23.85
2023-08-08T10:50:07.523Z,23.88
2023-08-08T10:55:18.542Z,23.92
2023-08-08T11:00:20.417Z,23.93
2023-08-08T11:05:22.416Z,23.93
2023-08-08T11:10:23.998Z,23.92
2023-08-08T11:15:25.380Z,23.87
2023-08-08T11:20:29.628Z,23.82
2023-08-08T11:25:31.155Z,23.78
2023-08-08T11:30:34.149Z,23.79
2023-08-08T11:35:35.427Z,23.77
2023-08-08T11:40:36.763Z,23.75
2023-08-08T11:45:38.255Z,23.72
2023-08-08T11:50:41.072Z,23.70
2023-08-08T11:55:42.411Z,23.66
2023-08-08T12:00:43.756Z,23.66
2023-08-08T12:05:48.043Z,23.64
2023-08-08T12:10:54.110Z,23.72
2023-08-08T12:15:56.666Z,23.71
2023-08-08T12:20:58.094Z,23.82
2023-08-08T12:26:00.105Z,23.88
2023-08-08T12:31:01.717Z,23.93
2023-08-08T12:36:03.029Z,23.90
2023-08-08T12:41:04.421Z,23.90
2023-08-08T12:46:05.782Z,23.92
2023-08-08T12:51:08.524Z,23.94
2023-08-08T12:56:09.872Z,23.82
2023-08-08T13:01:11.639Z,23.86
2023-08-08T13:06:14.248Z,23.80
2023-08-08T13:11:16.015Z,23.78
2023-08-08T13:16:17.340Z,23.78
2023-08-08T13:21:18.661Z,23.81
2023-08-08T13:26:19.942Z,23.79
2023-08-08T13:31:21.227Z,23.81
2023-08-08T13:36:22.548Z,23.75
2023-08-08T13:41:24.335Z,23.71
2023-08-08T13:46:26.787Z,23.77
2023-08-08T13:51:28.314Z,23.73
2023-08-08T13:56:29.604Z,23.70
2023-08-08T14:01:30.921Z,23.68
2023-08-08T14:06:32.223Z,23.77
2023-08-08T14:11:33.544Z,23.84
2023-08-08T14:16:34.874Z,23.87
2023-08-08T14:21:36.207Z,23.89
2023-08-08T14:26:37.556Z,23.87
2023-08-08T14:31:50.433Z,23.93
2023-08-08T14:36:59.777Z,23.87
2023-08-08T14:42:01.904Z,23.78
2023-08-08T14:47:03.914Z,23.75
2023-08-08T14:52:05.455Z,23.73
2023-08-08T14:57:06.745Z,23.68
2023-08-08T15:02:08.144Z,23.71
2023-08-08T15:07:09.505Z,23.71
2023-08-08T15:12:10.788Z,23.71
2023-08-08T15:17:12.075Z,23.76
2023-08-08T15:22:13.407Z,23.73
2023-08-08T15:27:14.748Z,23.64
2023-08-08T15:32:16.033Z,23.65
2023-08-08T15:37:17.315Z,23.64
2023-08-08T15:42:18.601Z,23.66
2023-08-08T15:47:19.902Z,23.67
2023-08-08T15:52:21.189Z,23.62
2023-08-08T15:57:22.466Z,23.57
2023-08-08T16:02:23.850Z,23.57
2023-08-08T16:07:25.191Z,23.57
2023-08-08T16:12:26.472Z,23.56
2023-08-08T16:17:27.742Z,23.53
2023-08-08T16:22:29.063Z,23.53
2023-08-08T16:27:30.352Z,23.52
2023-08-08T16:32:31.664Z,23.47
2023-08-08T16:37:33.033Z,23.45
2023-08-08T16:42:34.334Z,23.50
2023-08-08T16:47:35.625Z,23.46
2023-08-08T16:52:36.943Z,23.48
2023-08-08T16:57:38.540Z,23.50
2023-08-08T17:02:39.915Z,23.47
2023-08-08T17:07:41.366Z,23.46
2023-08-08T17:12:42.638Z,23.50
2023-08-08T17:17:44.005Z,23.48
2023-08-08T17:22:45.334Z,23.45
2023-08-08T17:27:46.680Z,23.43
2023-08-08T17:32:48.201Z,23.48
2023-08-08T17:37:49.601Z,23.44
2023-08-08T17:42:50.922Z,23.42
2023-08-08T17:47:52.930Z,23.43
2023-08-08T17:52:54.286Z,23.42
2023-08-08T17:57:55.576Z,23.39
2023-08-08T18:02:58.603Z,23.43
2023-08-08T18:07:59.978Z,23.39
2023-08-08T18:13:01.354Z,23.40
2023-08-08T18:18:04.402Z,23.31
2023-08-08T18:23:05.825Z,23.30
2023-08-08T18:28:07.194Z,23.28
2023-08-08T18:33:08.576Z,23.22
2023-08-08T18:38:10.296Z,23.27
2023-08-08T18:43:11.647Z,23.29
2023-08-08T18:48:12.950Z,23.23
2023-08-08T18:53:14.264Z,23.20
2023-08-08T18:58:15.662Z,23.24
2023-08-08T19:03:17.038Z,23.17
2023-08-08T19:08:18.400Z,23.11
2023-08-08T19:13:19.703Z,23.06
2023-08-08T19:18:21.033Z,23.07
2023-08-08T19:23:22.467Z,23.06
2023-08-08T19:28:23.753Z,23.08
2023-08-08T19:33:25.054Z,23.04
2023-08-08T19:38:26.383Z,23.10
2023-08-08T19:43:27.696Z,23.06
2023-08-08T19:48:28.992Z,23.07
2023-08-08T19:53:30.292Z,23.05
2023-08-08T19:58:31.593Z,23.08
2023-08-08T20:03:33.553Z,23.08
2023-08-08T20:08:35.046Z,23.07
2023-08-08T20:13:36.336Z,23.02
2023-08-08T20:18:37.661Z,23.03
2023-08-08T20:23:38.982Z,23.05
2023-08-08T20:28:41.894Z,23.02
2023-08-08T20:33:46.198Z,23.04
2023-08-08T20:38:47.571Z,23.04
2023-08-08T20:43:48.875Z,23.12
2023-08-08T20:48:51.893Z,23.03
2023-08-08T20:53:53.930Z,23.02
2023-08-08T20:58:55.241Z,23.01
2023-08-08T21:03:56.544Z,23.03
2023-08-08T21:08:57.894Z,23.06
2023-08-08T21:13:59.202Z,23.04
2023-08-08T21:19:00.487Z,23.05
2023-08-08T21:24:01.866Z,23.01
2023-08-08T21:29:03.162Z,23.07
2023-08-08T21:34:04.511Z,23.05
2023-08-08T21:39:05.817Z,23.02
2023-08-08T21:44:07.137Z,23.06
2023-08-08T21:49:08.502Z,22.97
2023-08-08T21:54:09.800Z,23.03
2023-08-08T21:59:11.162Z,23.05
2023-08-08T22:04:12.463Z,23.06
2023-08-08T22:09:13.809Z,23.07
2023-08-08T22:14:15.111Z,23.08
2023-08-08T22:19:16.783Z,23.04
2023-08-08T22:24:18.069Z,23.08
2023-08-08T22:29:19.607Z,23.08
2023-08-08T22:34:20.894Z,23.09
2023-08-08T22:39:22.282Z,23.03
2023-08-08T22:44:23.587Z,23.03
2023-08-08T22:49:24.878Z,23.03
2023-08-08T22:54:26.248Z,23.04
2023-08-08T22:59:27.581Z,23.09
2023-08-08T23:04:28.863Z,23.10
2023-08-08T23:09:30.211Z,23.05
2023-08-08T23:14:31.494Z,23.08
2023-08-08T23:19:32.773Z,23.06
2023-08-08T23:24:34.217Z,22.96
2023-08-08T23:29:35.551Z,23.01
2023-08-08T23:34:36.853Z,23.04
2023-08-08T23:39:38.148Z,23.04
2023-08-08T23:44:41.568Z,23.00
2023-08-08T23:49:42.867Z,23.02
2023-08-08T23:54:44.164Z,23.03
2023-08-08T23:59:46.031Z,22.99
